createdAt,value
2023-05-22T00:00:24.654Z,100894.34
2023-05-22T00:02:52.505Z,100910.22
2023-05-22T00:05:20.461Z,100897.16
2023-05-22T00:07:47.022Z,100900.44
2023-05-22T00:10:13.533Z,100902.13
2023-05-22T00:12:40.176Z,100902.28
2023-05-22T00:15:07.665Z,100890.84
2023-05-22T00:17:34.502Z,100898.16
2023-05-22T00:20:04.418Z,100899.16
2023-05-22T00:22:31.618Z,100895.84
2023-05-22T00:24:58.245Z,100888.22
2023-05-22T00:27:24.856Z,100898.19
2023-05-22T00:29:51.388Z,100891.41
2023-05-22T00:32:17.830Z,100884.94
2023-05-22T00:34:44.401Z,100879.16
2023-05-22T00:37:10.906Z,100886.47
2023-05-22T00:39:37.340Z,100883.16
2023-05-22T00:42:04.157Z,100878.03
2023-05-22T00:44:30.792Z,100879.03
2023-05-22T00:46:57.374Z,100881.19
2023-05-22T00:49:23.914Z,100875.44
2023-05-22T00:51:50.464Z,100880.88
2023-05-22T00:54:17.316Z,100881.41
2023-05-22T00:56:44.056Z,100879.75
2023-05-22T00:59:10.778Z,100873.81
2023-05-22T01:01:41.982Z,100877.63
2023-05-22T01:04:11.500Z,100875.47
2023-05-22T01:06:38.943Z,100867.88
2023-05-22T01:09:05.558Z,100879.63
2023-05-22T01:11:41.086Z,100878.16
2023-05-22T01:14:23.905Z,100889.72
2023-05-22T01:17:08.809Z,100887.44
2023-05-22T01:20:07.582Z,100883.13
2023-05-22T01:22:43.350Z,100880.66
2023-05-22T01:25:34.910Z,100875.72
2023-05-22T01:28:11.917Z,100879.66
2023-05-22T01:30:49.231Z,100876.38
2023-05-22T01:33:18.027Z,100882.81
2023-05-22T01:35:48.619Z,100887.47
2023-05-22T01:38:16.768Z,100885.16
2023-05-22T01:40:45.742Z,100884.47
2023-05-22T01:43:14.693Z,100884.81
2023-05-22T01:45:41.355Z,100884.50
2023-05-22T01:48:07.948Z,100875.25
2023-05-22T01:50:34.711Z,100876.59
2023-05-22T01:53:13.487Z,100872.28
2023-05-22T01:55:52.038Z,100874.09
2023-05-22T01:58:41.342Z,100863.03
2023-05-22T02:01:12.000Z,100859.56
2023-05-22T02:03:40.110Z,100864.16
2023-05-22T02:06:08.945Z,100856.72
2023-05-22T02:08:40.462Z,100858.72
2023-05-22T02:11:09.688Z,100865.31
2023-05-22T02:13:37.473Z,100856.41
2023-05-22T02:16:04.625Z,100855.59
2023-05-22T02:18:31.498Z,100862.84
2023-05-22T02:20:58.366Z,100857.06
2023-05-22T02:23:25.637Z,100867.81
2023-05-22T02:25:52.269Z,100868.78
2023-05-22T02:28:18.703Z,100865.16
2023-05-22T02:30:45.137Z,100853.09
2023-05-22T02:33:11.697Z,100856.91
2023-05-22T02:35:38.215Z,100863.50
2023-05-22T02:38:04.853Z,100860.06
2023-05-22T02:40:31.325Z,100860.06
2023-05-22T02:42:57.755Z,100858.72
2023-05-22T02:45:24.247Z,100857.91
2023-05-22T02:47:50.753Z,100861.50
2023-05-22T02:50:17.455Z,100854.91
2023-05-22T02:52:45.169Z,100858.19
2023-05-22T02:55:12.001Z,100858.66
2023-05-22T02:57:38.465Z,100859.13
2023-05-22T03:00:11.389Z,100847.41
2023-05-22T03:02:38.968Z,100844.09
2023-05-22T03:05:06.156Z,100849.72
2023-05-22T03:07:32.654Z,100849.88
2023-05-22T03:09:59.132Z,100840.16
2023-05-22T03:12:25.928Z,100849.81
2023-05-22T03:14:52.383Z,100852.59
2023-05-22T03:17:18.850Z,100857.88
2023-05-22T03:19:45.283Z,100849.81
2023-05-22T03:22:11.725Z,100850.78
2023-05-22T03:24:38.178Z,100845.50
2023-05-22T03:27:04.933Z,100854.41
2023-05-22T03:29:31.636Z,100849.28
2023-05-22T03:31:58.868Z,100850.44
2023-05-22T03:34:26.988Z,100846.16
2023-05-22T03:36:53.474Z,100845.97
2023-05-22T03:39:19.897Z,100847.44
2023-05-22T03:41:46.334Z,100844.63
2023-05-22T03:44:12.763Z,100851.88
2023-05-22T03:46:39.217Z,100848.41
2023-05-22T03:49:05.706Z,100852.19
2023-05-22T03:51:32.421Z,100842.94
2023-05-22T03:53:58.896Z,100849.19
2023-05-22T03:56:25.774Z,100846.03
2023-05-22T03:58:52.350Z,100854.28
2023-05-22T04:01:18.866Z,100860.03
2023-05-22T04:03:45.444Z,100856.31
2023-05-22T04:06:13.723Z,100854.00
2023-05-22T04:08:40.446Z,100851.50
2023-05-22T04:11:06.977Z,100862.53
2023-05-22T04:13:33.475Z,100858.34
2023-05-22T04:16:01.944Z,100860.75
2023-05-22T04:18:28.771Z,100866.72
2023-05-22T04:20:55.196Z,100864.75
2023-05-22T04:23:21.712Z,100867.38
2023-05-22T04:25:48.308Z,100868.38
2023-05-22T04:28:17.517Z,100870.03
2023-05-22T04:30:44.552Z,100876.28
2023-05-22T04:33:11.296Z,100880.72
2023-05-22T04:35:37.834Z,100876.44
2023-05-22T04:38:06.491Z,100881.56
2023-05-22T04:40:34.256Z,100887.28
2023-05-22T04:43:01.478Z,100880.59
2023-05-22T04:45:28.861Z,100884.44
2023-05-22T04:47:56.210Z,100887.06
2023-05-22T04:50:23.879Z,100889.97
2023-05-22T04:52:50.502Z,100884.97
2023-05-22T04:55:17.227Z,100889.78
2023-05-22T04:57:47.218Z,100894.41
2023-05-22T05:00:15.934Z,100893.84
2023-05-22T05:02:42.879Z,100889.28
2023-05-22T05:05:09.560Z,100880.91
2023-05-22T05:07:39.800Z,100888.81
2023-05-22T05:10:07.260Z,100891.97
2023-05-22T05:12:34.059Z,100879.59
2023-05-22T05:15:00.757Z,100894.59
2023-05-22T05:17:27.384Z,100885.56
2023-05-22T05:19:54.226Z,100891.00
2023-05-22T05:22:20.660Z,100882.63
2023-05-22T05:24:47.279Z,100887.56
2023-05-22T05:27:14.087Z,100884.94
2023-05-22T05:29:41.243Z,100890.38
2023-05-22T05:32:08.438Z,100891.31
2023-05-22T05:34:35.037Z,100894.69
2023-05-22T05:37:02.739Z,100896.19
2023-05-22T05:39:29.552Z,100900.03
2023-05-22T05:41:56.236Z,100900.38
2023-05-22T05:44:22.742Z,100905.09
2023-05-22T05:46:49.271Z,100901.16
2023-05-22T05:49:15.745Z,100910.72
2023-05-22T05:51:42.193Z,100892.78
2023-05-22T05:54:08.658Z,100903.78
2023-05-22T05:56:35.727Z,100898.50
2023-05-22T05:59:02.155Z,100905.09
2023-05-22T06:01:32.898Z,100901.97
2023-05-22T06:04:03.172Z,100912.19
2023-05-22T06:06:36.062Z,100908.66
2023-05-22T06:09:05.590Z,100908.44
2023-05-22T06:11:35.045Z,100914.47
2023-05-22T06:14:03.202Z,100913.03
2023-05-22T06:16:30.054Z,100913.41
2023-05-22T06:18:58.754Z,100913.66
2023-05-22T06:21:25.327Z,100925.13
2023-05-22T06:23:52.041Z,100920.47
2023-05-22T06:26:18.718Z,100916.03
2023-05-22T06:28:45.539Z,100921.03
2023-05-22T06:31:12.075Z,100925.66
2023-05-22T06:33:40.590Z,100924.84
2023-05-22T06:36:08.832Z,100924.16
2023-05-22T06:38:35.462Z,100924.78
2023-05-22T06:41:02.044Z,100919.41
2023-05-22T06:43:28.478Z,100930.88
2023-05-22T06:45:55.033Z,100934.97
2023-05-22T06:48:21.792Z,100938.38
2023-05-22T06:50:48.270Z,100941.41
2023-05-22T06:53:14.773Z,100940.66
2023-05-22T06:55:41.927Z,100945.63
2023-05-22T06:58:08.622Z,100950.00
2023-05-22T07:00:35.240Z,100963.56
2023-05-22T07:03:02.145Z,100962.03
2023-05-22T07:05:28.757Z,100961.63
2023-05-22T07:07:55.555Z,100956.31
2023-05-22T07:10:22.143Z,100957.72
2023-05-22T07:12:48.633Z,100951.47
2023-05-22T07:15:15.169Z,100955.53
2023-05-22T07:17:41.836Z,100964.91
2023-05-22T07:20:09.661Z,100962.63
2023-05-22T07:22:36.126Z,100960.13
2023-05-22T07:25:02.676Z,100971.03
2023-05-22T07:27:29.198Z,100976.25
2023-05-22T07:29:55.728Z,100969.84
2023-05-22T07:32:22.305Z,100972.91
2023-05-22T07:34:48.838Z,100975.78
2023-05-22T07:37:15.350Z,100971.72
2023-05-22T07:39:42.950Z,100976.22
2023-05-22T07:42:09.535Z,100973.00
2023-05-22T07:44:36.240Z,100975.31
2023-05-22T07:47:02.757Z,100971.75
2023-05-22T07:49:29.232Z,100978.31
2023-05-22T07:51:55.897Z,100981.63
2023-05-22T07:54:22.549Z,100976.81
2023-05-22T07:56:49.571Z,100975.69
2023-05-22T07:59:18.571Z,100984.34
2023-05-22T08:01:45.370Z,100983.47
2023-05-22T08:04:12.042Z,100988.41
2023-05-22T08:06:39.562Z,100995.56
2023-05-22T08:09:06.151Z,100990.22
2023-05-22T08:11:33.985Z,100998.56
2023-05-22T08:14:00.449Z,100994.47
2023-05-22T08:16:26.996Z,100995.00
2023-05-22T08:18:53.509Z,100998.16
2023-05-22T08:21:20.063Z,101000.53
2023-05-22T08:23:46.603Z,100993.47
2023-05-22T08:26:13.084Z,100995.00
2023-05-22T08:28:43.981Z,101001.56
2023-05-22T08:31:11.721Z,101000.88
2023-05-22T08:33:38.455Z,100994.41
2023-05-22T08:36:05.449Z,100998.94
2023-05-22T08:38:31.947Z,100988.66
2023-05-22T08:40:58.527Z,101000.78
2023-05-22T08:43:25.069Z,100994.06
2023-05-22T08:45:57.820Z,100993.47
2023-05-22T08:48:24.727Z,101002.97
2023-05-22T08:50:57.324Z,100996.19
2023-05-22T08:53:25.831Z,101005.63
2023-05-22T08:55:53.648Z,101008.63
2023-05-22T08:58:21.054Z,100996.19
2023-05-22T09:00:48.122Z,101003.22
2023-05-22T09:03:15.799Z,101006.81
2023-05-22T09:05:42.465Z,101008.94
2023-05-22T09:08:19.767Z,101018.53
2023-05-22T09:10:47.254Z,101015.13
2023-05-22T09:13:33.043Z,101016.50
2023-05-22T09:16:07.480Z,101023.97
2023-05-22T09:18:33.974Z,101021.97
2023-05-22T09:21:02.064Z,101022.50
2023-05-22T09:23:29.667Z,101013.44
2023-05-22T09:25:57.435Z,101011.31
2023-05-22T09:28:24.556Z,101028.97
2023-05-22T09:30:51.883Z,101023.56
2023-05-22T09:33:19.272Z,101029.66
2023-05-22T09:35:51.687Z,101029.25
2023-05-22T09:38:18.290Z,101020.22
2023-05-22T09:40:44.777Z,101030.63
2023-05-22T09:43:12.733Z,101029.97
2023-05-22T09:45:39.457Z,101025.34
2023-05-22T09:48:07.084Z,101037.38
2023-05-22T09:50:33.777Z,101030.94
2023-05-22T09:53:04.898Z,101028.94
2023-05-22T09:55:32.219Z,101027.84
2023-05-22T09:58:03.159Z,101030.31
2023-05-22T10:00:30.577Z,101022.56
2023-05-22T10:03:08.987Z,101030.84
2023-05-22T10:05:38.018Z,101038.44
2023-05-22T10:08:15.057Z,101032.50
2023-05-22T10:10:43.412Z,101030.84
2023-05-22T10:13:11.003Z,101026.69
2023-05-22T10:15:38.386Z,101036.63
2023-05-22T10:18:05.809Z,101042.91
2023-05-22T10:20:32.903Z,101040.25
2023-05-22T10:23:02.660Z,101038.13
2023-05-22T10:25:30.265Z,101023.94
2023-05-22T10:27:58.364Z,101032.66
2023-05-22T10:30:34.042Z,101033.00
2023-05-22T10:33:12.270Z,101024.41
2023-05-22T10:35:44.427Z,101027.03
2023-05-22T10:39:08.131Z,101024.75
2023-05-22T10:41:35.118Z,101025.63
2023-05-22T10:44:02.975Z,101024.63
2023-05-22T10:46:34.401Z,101020.66
2023-05-22T10:49:00.969Z,101017.91
2023-05-22T10:51:27.993Z,101016.75
2023-05-22T10:54:05.612Z,101016.09
2023-05-22T10:56:35.155Z,101018.44
2023-05-22T10:59:05.272Z,101017.59
2023-05-22T11:01:36.133Z,101028.34
2023-05-22T11:04:06.804Z,101023.03
2023-05-22T11:06:33.306Z,101013.09
2023-05-22T11:09:00.023Z,101011.78
2023-05-22T11:11:27.324Z,101014.25
2023-05-22T11:14:03.185Z,101003.50
2023-05-22T11:16:33.747Z,101010.78
2023-05-22T11:19:21.162Z,101006.47
2023-05-22T11:21:49.568Z,101012.19
2023-05-22T11:24:17.935Z,101007.84
2023-05-22T11:26:44.905Z,101007.63
2023-05-22T11:29:11.575Z,101008.91
2023-05-22T11:31:38.661Z,101001.13
2023-05-22T11:34:05.629Z,100996.19
2023-05-22T11:36:32.361Z,101002.53
2023-05-22T11:39:00.067Z,100994.69
2023-05-22T11:41:34.164Z,100996.31
2023-05-22T11:44:01.580Z,100999.75
2023-05-22T11:46:30.163Z,100996.06
2023-05-22T11:48:56.946Z,100990.69
2023-05-22T11:51:23.502Z,100983.25
2023-05-22T11:53:49.966Z,100987.84
2023-05-22T11:56:21.733Z,100987.47
2023-05-22T11:58:51.893Z,100984.97
2023-05-22T12:01:18.501Z,100981.56
2023-05-22T12:03:45.111Z,100987.19
2023-05-22T12:06:11.974Z,100981.53
2023-05-22T12:08:39.308Z,100984.06
2023-05-22T12:11:07.039Z,100972.84
2023-05-22T12:13:33.535Z,100982.34
2023-05-22T12:16:00.948Z,100979.81
2023-05-22T12:18:35.378Z,100978.13
2023-05-22T12:21:01.926Z,100983.63
2023-05-22T12:23:30.017Z,100984.69
2023-05-22T12:26:08.610Z,100968.97
2023-05-22T12:28:35.334Z,100972.66
2023-05-22T12:31:01.804Z,100975.63
2023-05-22T12:33:29.594Z,100967.78
2023-05-22T12:36:00.328Z,100976.94
2023-05-22T12:38:28.051Z,100966.41
2023-05-22T12:40:58.273Z,100966.63
2023-05-22T12:43:25.418Z,100965.06
2023-05-22T12:45:52.001Z,100966.72
2023-05-22T12:48:19.352Z,100962.66
2023-05-22T12:50:49.219Z,100964.34
2023-05-22T12:53:15.845Z,100956.69
2023-05-22T12:55:43.311Z,100959.78
2023-05-22T12:58:09.800Z,100960.19
2023-05-22T13:00:36.334Z,100957.25
2023-05-22T13:03:03.781Z,100960.38
2023-05-22T13:05:30.457Z,100955.91
2023-05-22T13:07:57.052Z,100948.66
2023-05-22T13:10:23.525Z,100955.00
2023-05-22T13:12:51.226Z,100955.13
2023-05-22T13:15:18.517Z,100951.94
2023-05-22T13:17:45.702Z,100955.47
2023-05-22T13:20:13.418Z,100961.88
2023-05-22T13:22:41.237Z,100956.56
2023-05-22T13:25:08.110Z,100954.31
2023-05-22T13:27:34.613Z,100956.19
2023-05-22T13:30:01.152Z,100943.47
2023-05-22T13:32:27.701Z,100943.47
2023-05-22T13:34:54.182Z,100938.94
2023-05-22T13:37:20.903Z,100938.75
2023-05-22T13:39:47.706Z,100937.69
2023-05-22T13:42:14.434Z,100937.91
2023-05-22T13:44:41.042Z,100926.56
2023-05-22T13:47:07.735Z,100940.13
2023-05-22T13:49:34.358Z,100936.44
2023-05-22T13:52:00.838Z,100941.75
2023-05-22T13:54:27.586Z,100935.97
2023-05-22T13:56:54.203Z,100931.44
2023-05-22T13:59:20.649Z,100931.28
2023-05-22T14:01:47.082Z,100933.31
2023-05-22T14:04:13.538Z,100936.63
2023-05-22T14:06:40.077Z,100936.16
2023-05-22T14:09:07.934Z,100948.03
2023-05-22T14:11:34.556Z,100946.41
2023-05-22T14:14:01.152Z,100944.19
2023-05-22T14:16:27.688Z,100944.81
2023-05-22T14:18:54.225Z,100960.03
2023-05-22T14:21:20.730Z,100957.75
2023-05-22T14:23:47.202Z,100958.41
2023-05-22T14:26:14.601Z,100965.78
2023-05-22T14:28:41.660Z,100954.06
2023-05-22T14:31:08.143Z,100967.84
2023-05-22T14:33:35.813Z,100961.09
2023-05-22T14:36:02.688Z,100965.38
2023-05-22T14:38:33.490Z,100950.44
2023-05-22T14:41:01.062Z,100952.91
2023-05-22T14:43:27.544Z,100945.06
2023-05-22T14:45:55.822Z,100944.22
2023-05-22T14:48:26.407Z,100944.41
2023-05-22T14:50:56.375Z,100930.63
2023-05-22T14:53:23.214Z,100938.47
2023-05-22T14:55:50.070Z,100928.56
2023-05-22T14:58:16.598Z,100936.78
2023-05-22T15:00:43.074Z,100928.16
2023-05-22T15:03:09.626Z,100933.47
2023-05-22T15:05:36.321Z,100922.63
2023-05-22T15:08:02.807Z,100932.28
2023-05-22T15:10:29.333Z,100921.19
2023-05-22T15:12:55.812Z,100925.72
2023-05-22T15:15:22.452Z,100915.88
2023-05-22T15:17:48.919Z,100923.81
2023-05-22T15:20:15.509Z,100921.63
2023-05-22T15:22:41.978Z,100920.47
2023-05-22T15:25:12.266Z,100907.06
2023-05-22T15:27:39.647Z,100905.81
2023-05-22T15:30:09.510Z,100902.16
2023-05-22T15:32:37.035Z,100904.63
2023-05-22T15:35:05.411Z,100889.66
2023-05-22T15:37:33.610Z,100898.25
2023-05-22T15:40:01.401Z,100891.28
2023-05-22T15:42:28.065Z,100898.47
2023-05-22T15:44:54.576Z,100887.97
2023-05-22T15:47:21.079Z,100881.19
2023-05-22T15:49:47.767Z,100891.53
2023-05-22T15:52:14.244Z,100885.56
2023-05-22T15:54:40.804Z,100885.56
2023-05-22T15:57:07.293Z,100890.06
2023-05-22T15:59:33.824Z,100889.03
2023-05-22T16:02:00.342Z,100896.41
2023-05-22T16:04:26.801Z,100896.66
2023-05-22T16:06:53.286Z,100892.09
2023-05-22T16:09:19.812Z,100889.44
2023-05-22T16:11:46.555Z,100890.03
2023-05-22T16:14:13.341Z,100895.41
2023-05-22T16:16:40.044Z,100896.66
2023-05-22T16:19:06.720Z,100897.47
2023-05-22T16:21:33.259Z,100903.59
2023-05-22T16:23:59.769Z,100897.22
2023-05-22T16:26:26.901Z,100894.16
2023-05-22T16:28:53.410Z,100902.56
2023-05-22T16:31:20.061Z,100908.31
2023-05-22T16:33:46.582Z,100915.53
2023-05-22T16:36:13.230Z,100911.81
2023-05-22T16:38:39.795Z,100917.16
2023-05-22T16:41:06.269Z,100919.00
2023-05-22T16:43:32.727Z,100928.25
2023-05-22T16:45:59.298Z,100911.81
2023-05-22T16:48:25.754Z,100916.13
2023-05-22T16:50:52.283Z,100922.28
2023-05-22T16:53:18.789Z,100917.75
2023-05-22T16:55:45.471Z,100921.84
2023-05-22T16:58:12.604Z,100916.28
2023-05-22T17:00:40.192Z,100909.50
2023-05-22T17:03:08.188Z,100915.69
2023-05-22T17:05:35.259Z,100904.00
2023-05-22T17:08:01.801Z,100912.41
2023-05-22T17:10:28.325Z,100913.81
2023-05-22T17:12:54.933Z,100918.72
2023-05-22T17:15:21.382Z,100911.34
2023-05-22T17:17:47.865Z,100922.59
2023-05-22T17:20:14.316Z,100923.63
2023-05-22T17:22:42.393Z,100922.13
2023-05-22T17:25:09.352Z,100925.00
2023-05-22T17:27:36.834Z,100927.44
2023-05-22T17:30:04.877Z,100946.66
2023-05-22T17:32:31.570Z,100946.00
2023-05-22T17:34:58.249Z,100944.53
2023-05-22T17:37:24.726Z,100957.59
2023-05-22T17:39:51.778Z,100961.25
2023-05-22T17:42:18.365Z,100961.00
2023-05-22T17:44:45.060Z,100973.25
2023-05-22T17:47:13.243Z,100969.81
2023-05-22T17:49:39.985Z,100984.34
2023-05-22T17:52:08.479Z,100980.25
2023-05-22T17:54:35.746Z,100975.41
2023-05-22T17:57:04.104Z,100987.56
2023-05-22T17:59:32.503Z,100990.47
2023-05-22T18:01:59.138Z,100992.84
2023-05-22T18:04:25.988Z,100994.34
2023-05-22T18:06:52.529Z,101006.91
2023-05-22T18:09:18.999Z,101006.22
2023-05-22T18:11:45.664Z,101007.97
2023-05-22T18:14:12.197Z,101007.63
2023-05-22T18:16:38.719Z,101008.16
2023-05-22T18:19:05.277Z,101010.38
2023-05-22T18:21:32.275Z,101002.50
2023-05-22T18:23:59.006Z,101006.53
2023-05-22T18:26:26.686Z,101003.88
2023-05-22T18:28:53.191Z,101008.75
2023-05-22T18:31:19.982Z,100998.66
2023-05-22T18:33:46.608Z,101002.50
2023-05-22T18:36:13.809Z,101009.84
2023-05-22T18:38:40.432Z,101006.34
2023-05-22T18:41:07.256Z,101013.84
2023-05-22T18:43:33.793Z,101013.50
2023-05-22T18:46:00.328Z,101008.19
2023-05-22T18:48:28.165Z,101010.84
2023-05-22T18:50:57.358Z,101010.84
2023-05-22T18:53:25.166Z,101013.69
2023-05-22T18:55:53.670Z,101010.38
2023-05-22T18:58:20.474Z,101019.00
2023-05-22T19:00:47.031Z,101025.94
2023-05-22T19:03:14.047Z,101034.09
2023-05-22T19:05:40.691Z,101032.44
2023-05-22T19:08:07.249Z,101036.31
2023-05-22T19:10:33.742Z,101040.16
2023-05-22T19:13:00.291Z,101042.66
2023-05-22T19:15:26.815Z,101046.53
2023-05-22T19:17:53.357Z,101049.50
2023-05-22T19:20:19.857Z,101049.25
2023-05-22T19:22:46.416Z,101057.75
2023-05-22T19:25:12.925Z,101057.94
2023-05-22T19:27:39.606Z,101054.63
2023-05-22T19:30:07.198Z,101058.28
2023-05-22T19:32:33.867Z,101064.63
2023-05-22T19:35:00.490Z,101080.06
2023-05-22T19:37:26.967Z,101080.06
2023-05-22T19:39:54.219Z,101077.97
2023-05-22T19:42:20.750Z,101074.00
2023-05-22T19:44:47.233Z,101077.81
2023-05-22T19:47:13.855Z,101090.44
2023-05-22T19:49:40.502Z,101083.50
2023-05-22T19:52:06.927Z,101093.63
2023-05-22T19:54:34.685Z,101090.16
2023-05-22T19:57:01.343Z,101095.66
2023-05-22T19:59:27.805Z,101099.09
2023-05-22T20:01:54.330Z,101101.97
2023-05-22T20:04:21.480Z,101107.59
2023-05-22T20:06:48.377Z,101107.31
2023-05-22T20:09:15.008Z,101113.16
2023-05-22T20:11:41.474Z,101114.50
2023-05-22T20:14:08.258Z,101132.78
2023-05-22T20:16:34.933Z,101131.81
2023-05-22T20:19:02.504Z,101135.16
2023-05-22T20:21:29.127Z,101135.50
2023-05-22T20:23:55.636Z,101146.44
2023-05-22T20:26:22.271Z,101141.63
2023-05-22T20:28:48.707Z,101144.63
2023-05-22T20:31:15.194Z,101149.63
2023-05-22T20:33:41.698Z,101145.66
2023-05-22T20:36:08.637Z,101146.34
2023-05-22T20:38:35.146Z,101152.16
2023-05-22T20:41:02.562Z,101148.38
2023-05-22T20:43:30.736Z,101154.81
2023-05-22T20:45:57.502Z,101150.72
2023-05-22T20:48:24.073Z,101150.53
2023-05-22T20:50:50.663Z,101159.19
2023-05-22T20:53:17.560Z,101161.16
2023-05-22T20:55:45.053Z,101159.88
2023-05-22T20:58:11.585Z,101163.38
2023-05-22T21:00:38.192Z,101157.38
2023-05-22T21:03:04.811Z,101164.16
2023-05-22T21:05:31.436Z,101171.94
2023-05-22T21:07:57.914Z,101158.69
2023-05-22T21:10:24.333Z,101163.31
2023-05-22T21:12:50.850Z,101161.31
2023-05-22T21:15:17.499Z,101159.50
2023-05-22T21:17:44.143Z,101164.44
2023-05-22T21:20:11.048Z,101161.63
2023-05-22T21:22:37.531Z,101156.00
2023-05-22T21:25:04.314Z,101160.13
2023-05-22T21:27:30.765Z,101162.59
2023-05-22T21:29:57.251Z,101169.22
2023-05-22T21:32:23.751Z,101174.00
2023-05-22T21:34:50.327Z,101176.59
2023-05-22T21:37:16.827Z,101169.31
2023-05-22T21:39:43.282Z,101165.47
2023-05-22T21:42:09.935Z,101167.06
2023-05-22T21:44:37.421Z,101174.63
2023-05-22T21:47:04.026Z,101178.75
2023-05-22T21:49:30.594Z,101181.88
2023-05-22T21:51:57.131Z,101174.59
2023-05-22T21:54:23.621Z,101178.50
2023-05-22T21:56:50.108Z,101176.19
2023-05-22T21:59:16.609Z,101172.19
2023-05-22T22:01:43.326Z,101180.28
2023-05-22T22:04:09.888Z,101187.19
2023-05-22T22:06:36.852Z,101190.44
2023-05-22T22:09:03.585Z,101197.16
2023-05-22T22:11:30.151Z,101202.25
2023-05-22T22:13:56.806Z,101199.22
2023-05-22T22:16:24.354Z,101198.03
2023-05-22T22:18:51.321Z,101196.66
2023-05-22T22:21:17.907Z,101195.31
2023-05-22T22:23:44.327Z,101201.59
2023-05-22T22:26:12.134Z,101214.28
2023-05-22T22:28:38.629Z,101205.97
2023-05-22T22:31:05.133Z,101212.53
2023-05-22T22:33:32.754Z,101210.22
2023-05-22T22:35:59.602Z,101216.19
2023-05-22T22:38:26.833Z,101223.44
2023-05-22T22:40:53.317Z,101207.66
2023-05-22T22:43:19.774Z,101215.75
2023-05-22T22:45:46.508Z,101226.31
2023-05-22T22:48:13.055Z,101226.75
2023-05-22T22:50:39.823Z,101229.84
2023-05-22T22:53:06.486Z,101228.09
2023-05-22T22:55:33.255Z,101233.13
2023-05-22T22:57:59.762Z,101235.66
2023-05-22T23:00:26.217Z,101240.84
2023-05-22T23:02:52.750Z,101239.50
2023-05-22T23:05:20.534Z,101249.34
2023-05-22T23:07:47.783Z,101255.06
2023-05-22T23:10:14.956Z,101259.81
2023-05-22T23:12:41.792Z,101256.63
2023-05-22T23:15:13.219Z,101259.69
2023-05-22T23:17:41.277Z,101267.75
2023-05-22T23:20:08.946Z,101259.28
2023-05-22T23:22:35.613Z,101257.91
2023-05-22T23:25:02.284Z,101275.16
2023-05-22T23:27:28.818Z,101269.47
2023-05-22T23:29:55.326Z,101270.56
2023-05-22T23:32:22.242Z,101272.41
2023-05-22T23:34:48.795Z,101268.19
2023-05-22T23:37:15.680Z,101263.78
2023-05-22T23:39:42.123Z,101262.81
2023-05-22T23:42:12.106Z,101254.91
2023-05-22T23:44:38.576Z,101251.84
2023-05-22T23:47:06.579Z,101251.72
2023-05-22T23:49:33.329Z,101248.09
2023-05-22T23:52:00.007Z,101254.03
2023-05-22T23:54:26.502Z,101250.47
2023-05-22T23:56:53.665Z,101249.63
2023-05-22T23:59:21.521Z,101253.78
